sensor_id;sensor_type;location;lat;lon;timestamp;P1;durP1;ratioP1;P2;durP2;ratioP2
16957;SDS011;8595;52.542;11.974;2023-06-14T00:00:15;3.00;;;2.70;;
16957;SDS011;8595;52.542;11.974;2023-06-14T00:02:42;3.08;;;2.63;;
16957;SDS011;8595;52.542;11.974;2023-06-14T00:05:10;5.18;;;2.72;;
16957;SDS011;8595;52.542;11.974;2023-06-14T00:07:38;4.70;;;2.47;;
16957;SDS011;8595;52.542;11.974;2023-06-14T00:10:09;2.90;;;2.60;;
16957;SDS011;8595;52.542;11.974;2023-06-14T00:12:37;5.50;;;2.60;;
16957;SDS011;8595;52.542;11.974;2023-06-14T00:15:05;6.18;;;2.80;;
16957;SDS011;8595;52.542;11.974;2023-06-14T00:17:34;7.47;;;2.92;;
16957;SDS011;8595;52.542;11.974;2023-06-14T00:20:02;5.40;;;2.65;;
16957;SDS011;8595;52.542;11.974;2023-06-14T00:22:34;3.15;;;2.85;;
16957;SDS011;8595;52.542;11.974;2023-06-14T00:25:01;3.20;;;2.90;;
16957;SDS011;8595;52.542;11.974;2023-06-14T00:27:28;3.75;;;2.40;;
16957;SDS011;8595;52.542;11.974;2023-06-14T00:29:55;3.50;;;2.65;;
16957;SDS011;8595;52.542;11.974;2023-06-14T00:32:23;3.80;;;2.83;;
16957;SDS011;8595;52.542;11.974;2023-06-14T00:34:50;3.05;;;2.75;;
16957;SDS011;8595;52.542;11.974;2023-06-14T00:37:17;7.80;;;3.08;;
16957;SDS011;8595;52.542;11.974;2023-06-14T00:39:45;3.83;;;2.50;;
16957;SDS011;8595;52.542;11.974;2023-06-14T00:42:22;4.25;;;3.10;;
16957;SDS011;8595;52.542;11.974;2023-06-14T00:44:50;3.45;;;3.10;;
16957;SDS011;8595;52.542;11.974;2023-06-14T00:47:17;4.78;;;3.13;;
16957;SDS011;8595;52.542;11.974;2023-06-14T00:49:44;6.20;;;3.63;;
16957;SDS011;8595;52.542;11.974;2023-06-14T00:52:11;5.68;;;2.97;;
16957;SDS011;8595;52.542;11.974;2023-06-14T00:54:39;6.15;;;3.08;;
16957;SDS011;8595;52.542;11.974;2023-06-14T00:57:08;2.83;;;2.63;;
16957;SDS011;8595;52.542;11.974;2023-06-14T00:59:35;4.43;;;2.55;;
16957;SDS011;8595;52.542;11.974;2023-06-14T01:02:09;4.22;;;2.78;;
16957;SDS011;8595;52.542;11.974;2023-06-14T01:04:36;3.90;;;3.28;;
16957;SDS011;8595;52.542;11.974;2023-06-14T01:07:07;4.10;;;2.97;;
16957;SDS011;8595;52.542;11.974;2023-06-14T01:09:44;9.70;;;3.55;;
16957;SDS011;8595;52.542;11.974;2023-06-14T01:12:30;11.02;;;3.50;;
16957;SDS011;8595;52.542;11.974;2023-06-14T01:15:03;3.97;;;2.95;;
16957;SDS011;8595;52.542;11.974;2023-06-14T01:17:30;3.17;;;2.88;;
16957;SDS011;8595;52.542;11.974;2023-06-14T01:19:58;5.78;;;3.10;;
16957;SDS011;8595;52.542;11.974;2023-06-14T01:22:25;7.70;;;3.58;;
16957;SDS011;8595;52.542;11.974;2023-06-14T01:24:53;4.78;;;3.50;;
16957;SDS011;8595;52.542;11.974;2023-06-14T01:27:22;7.97;;;3.40;;
16957;SDS011;8595;52.542;11.974;2023-06-14T01:29:50;5.25;;;2.60;;
16957;SDS011;8595;52.542;11.974;2023-06-14T01:32:21;4.18;;;3.15;;
16957;SDS011;8595;52.542;11.974;2023-06-14T01:34:49;4.32;;;3.13;;
16957;SDS011;8595;52.542;11.974;2023-06-14T01:37:15;4.05;;;2.92;;
16957;SDS011;8595;52.542;11.974;2023-06-14T01:39:43;4.90;;;2.95;;
16957;SDS011;8595;52.542;11.974;2023-06-14T01:42:13;7.90;;;3.13;;
16957;SDS011;8595;52.542;11.974;2023-06-14T01:44:40;3.63;;;3.20;;
16957;SDS011;8595;52.542;11.974;2023-06-14T01:47:09;4.22;;;2.85;;
16957;SDS011;8595;52.542;11.974;2023-06-14T01:49:36;4.97;;;2.83;;
16957;SDS011;8595;52.542;11.974;2023-06-14T01:52:05;3.53;;;3.22;;
16957;SDS011;8595;52.542;11.974;2023-06-14T01:54:35;5.68;;;3.17;;
16957;SDS011;8595;52.542;11.974;2023-06-14T01:57:06;5.32;;;3.05;;
16957;SDS011;8595;52.542;11.974;2023-06-14T01:59:35;4.97;;;3.55;;
16957;SDS011;8595;52.542;11.974;2023-06-14T02:02:01;9.07;;;3.95;;
16957;SDS011;8595;52.542;11.974;2023-06-14T02:04:29;4.30;;;3.10;;
16957;SDS011;8595;52.542;11.974;2023-06-14T02:06:55;5.25;;;3.50;;
16957;SDS011;8595;52.542;11.974;2023-06-14T02:09:22;6.25;;;3.20;;
16957;SDS011;8595;52.542;11.974;2023-06-14T02:11:49;6.60;;;3.78;;
16957;SDS011;8595;52.542;11.974;2023-06-14T02:14:16;5.90;;;4.00;;
16957;SDS011;8595;52.542;11.974;2023-06-14T02:16:44;8.82;;;3.47;;
16957;SDS011;8595;52.542;11.974;2023-06-14T02:19:14;5.57;;;3.63;;
16957;SDS011;8595;52.542;11.974;2023-06-14T02:21:40;5.50;;;3.67;;
16957;SDS011;8595;52.542;11.974;2023-06-14T02:24:07;5.05;;;3.33;;
16957;SDS011;8595;52.542;11.974;2023-06-14T02:26:34;5.57;;;3.30;;
16957;SDS011;8595;52.542;11.974;2023-06-14T02:29:04;5.78;;;3.28;;
16957;SDS011;8595;52.542;11.974;2023-06-14T02:31:34;5.30;;;4.30;;
16957;SDS011;8595;52.542;11.974;2023-06-14T02:34:02;6.50;;;3.85;;
16957;SDS011;8595;52.542;11.974;2023-06-14T02:36:29;4.55;;;3.75;;
16957;SDS011;8595;52.542;11.974;2023-06-14T02:38:56;6.03;;;3.72;;
16957;SDS011;8595;52.542;11.974;2023-06-14T02:41:23;5.32;;;3.30;;
16957;SDS011;8595;52.542;11.974;2023-06-14T02:43:51;4.18;;;3.55;;
16957;SDS011;8595;52.542;11.974;2023-06-14T02:46:21;6.00;;;3.80;;
16957;SDS011;8595;52.542;11.974;2023-06-14T02:48:47;4.38;;;3.50;;
16957;SDS011;8595;52.542;11.974;2023-06-14T02:51:15;6.47;;;3.88;;
16957;SDS011;8595;52.542;11.974;2023-06-14T02:53:42;4.68;;;3.53;;
16957;SDS011;8595;52.542;11.974;2023-06-14T02:56:11;5.95;;;4.22;;
16957;SDS011;8595;52.542;11.974;2023-06-14T02:58:38;4.13;;;3.72;;
16957;SDS011;8595;52.542;11.974;2023-06-14T03:01:06;5.72;;;4.03;;
16957;SDS011;8595;52.542;11.974;2023-06-14T03:03:32;5.38;;;3.88;;
16957;SDS011;8595;52.542;11.974;2023-06-14T03:05:59;7.50;;;3.53;;
16957;SDS011;8595;52.542;11.974;2023-06-14T03:08:31;6.03;;;3.53;;
16957;SDS011;8595;52.542;11.974;2023-06-14T03:11:03;5.68;;;3.78;;
16957;SDS011;8595;52.542;11.974;2023-06-14T03:13:31;4.55;;;3.55;;
16957;SDS011;8595;52.542;11.974;2023-06-14T03:15:58;5.25;;;3.60;;
16957;SDS011;8595;52.542;11.974;2023-06-14T03:18:28;4.55;;;3.65;;
16957;SDS011;8595;52.542;11.974;2023-06-14T03:20:56;5.55;;;4.20;;
16957;SDS011;8595;52.542;11.974;2023-06-14T03:23:23;5.35;;;3.78;;
16957;SDS011;8595;52.542;11.974;2023-06-14T03:25:51;5.00;;;4.32;;
16957;SDS011;8595;52.542;11.974;2023-06-14T03:28:18;4.30;;;3.90;;
16957;SDS011;8595;52.542;11.974;2023-06-14T03:30:45;7.05;;;4.10;;
16957;SDS011;8595;52.542;11.974;2023-06-14T03:33:12;6.63;;;4.20;;
16957;SDS011;8595;52.542;11.974;2023-06-14T03:35:38;7.43;;;4.43;;
16957;SDS011;8595;52.542;11.974;2023-06-14T03:38:05;4.47;;;3.90;;
16957;SDS011;8595;52.542;11.974;2023-06-14T03:40:32;4.43;;;4.00;;
16957;SDS011;8595;52.542;11.974;2023-06-14T03:43:00;4.50;;;3.85;;
16957;SDS011;8595;52.542;11.974;2023-06-14T03:45:26;8.98;;;3.80;;
16957;SDS011;8595;52.542;11.974;2023-06-14T03:47:53;5.13;;;4.22;;
16957;SDS011;8595;52.542;11.974;2023-06-14T03:50:21;5.30;;;3.95;;
16957;SDS011;8595;52.542;11.974;2023-06-14T03:52:48;6.82;;;3.72;;
16957;SDS011;8595;52.542;11.974;2023-06-14T03:55:15;5.50;;;4.03;;
16957;SDS011;8595;52.542;11.974;2023-06-14T03:57:42;5.95;;;4.22;;
16957;SDS011;8595;52.542;11.974;2023-06-14T04:00:11;4.55;;;4.10;;
16957;SDS011;8595;52.542;11.974;2023-06-14T04:02:39;5.10;;;4.13;;
16957;SDS011;8595;52.542;11.974;2023-06-14T04:05:06;5.60;;;4.20;;
16957;SDS011;8595;52.542;11.974;2023-06-14T04:07:34;7.07;;;4.53;;
16957;SDS011;8595;52.542;11.974;2023-06-14T04:10:05;5.28;;;4.45;;
16957;SDS011;8595;52.542;11.974;2023-06-14T04:12:33;6.65;;;4.03;;
16957;SDS011;8595;52.542;11.974;2023-06-14T04:14:59;7.43;;;4.57;;
16957;SDS011;8595;52.542;11.974;2023-06-14T04:17:28;4.90;;;4.28;;
16957;SDS011;8595;52.542;11.974;2023-06-14T04:19:54;5.07;;;4.50;;
16957;SDS011;8595;52.542;11.974;2023-06-14T04:22:23;4.45;;;3.80;;
16957;SDS011;8595;52.542;11.974;2023-06-14T04:24:53;5.07;;;4.30;;
16957;SDS011;8595;52.542;11.974;2023-06-14T04:27:21;5.47;;;3.80;;
16957;SDS011;8595;52.542;11.974;2023-06-14T04:29:50;5.15;;;4.07;;
16957;SDS011;8595;52.542;11.974;2023-06-14T04:32:21;5.15;;;3.88;;
16957;SDS011;8595;52.542;11.974;2023-06-14T04:34:52;5.85;;;4.82;;
16957;SDS011;8595;52.542;11.974;2023-06-14T04:37:19;5.72;;;4.25;;
16957;SDS011;8595;52.542;11.974;2023-06-14T04:39:47;6.18;;;4.65;;
16957;SDS011;8595;52.542;11.974;2023-06-14T04:42:14;6.65;;;4.93;;
16957;SDS011;8595;52.542;11.974;2023-06-14T04:44:41;4.25;;;3.83;;
16957;SDS011;8595;52.542;11.974;2023-06-14T04:47:08;5.00;;;4.50;;
16957;SDS011;8595;52.542;11.974;2023-06-14T04:49:36;6.93;;;4.70;;
16957;SDS011;8595;52.542;11.974;2023-06-14T04:52:05;5.88;;;4.53;;
16957;SDS011;8595;52.542;11.974;2023-06-14T04:54:32;7.68;;;4.90;;
16957;SDS011;8595;52.542;11.974;2023-06-14T04:57:01;5.13;;;4.63;;
16957;SDS011;8595;52.542;11.974;2023-06-14T04:59:29;4.90;;;4.40;;
16957;SDS011;8595;52.542;11.974;2023-06-14T05:01:58;5.15;;;4.63;;
16957;SDS011;8595;52.542;11.974;2023-06-14T05:04:25;4.57;;;4.18;;
16957;SDS011;8595;52.542;11.974;2023-06-14T05:06:53;7.57;;;4.75;;
16957;SDS011;8595;52.542;11.974;2023-06-14T05:09:21;7.85;;;5.13;;
16957;SDS011;8595;52.542;11.974;2023-06-14T05:11:48;6.07;;;4.25;;
16957;SDS011;8595;52.542;11.974;2023-06-14T05:14:15;6.53;;;4.43;;
16957;SDS011;8595;52.542;11.974;2023-06-14T05:16:42;8.35;;;4.65;;
16957;SDS011;8595;52.542;11.974;2023-06-14T05:19:09;5.63;;;4.57;;
16957;SDS011;8595;52.542;11.974;2023-06-14T05:21:36;7.18;;;4.82;;
16957;SDS011;8595;52.542;11.974;2023-06-14T05:24:03;7.25;;;5.25;;
16957;SDS011;8595;52.542;11.974;2023-06-14T05:26:31;6.85;;;5.20;;
16957;SDS011;8595;52.542;11.974;2023-06-14T05:28:58;6.15;;;5.55;;
16957;SDS011;8595;52.542;11.974;2023-06-14T05:31:26;6.85;;;5.57;;
16957;SDS011;8595;52.542;11.974;2023-06-14T05:33:53;6.65;;;5.25;;
16957;SDS011;8595;52.542;11.974;2023-06-14T05:36:20;5.97;;;5.45;;
16957;SDS011;8595;52.542;11.974;2023-06-14T05:38:47;5.95;;;5.18;;
16957;SDS011;8595;52.542;11.974;2023-06-14T05:41:13;16.65;;;5.78;;
16957;SDS011;8595;52.542;11.974;2023-06-14T05:43:42;8.32;;;5.85;;
16957;SDS011;8595;52.542;11.974;2023-06-14T05:46:08;5.50;;;5.00;;
16957;SDS011;8595;52.542;11.974;2023-06-14T05:48:35;12.13;;;5.60;;
16957;SDS011;8595;52.542;11.974;2023-06-14T05:51:02;10.98;;;6.07;;
16957;SDS011;8595;52.542;11.974;2023-06-14T05:53:29;9.07;;;6.10;;
16957;SDS011;8595;52.542;11.974;2023-06-14T05:55:55;6.25;;;5.22;;
16957;SDS011;8595;52.542;11.974;2023-06-14T05:58:22;7.05;;;5.22;;
16957;SDS011;8595;52.542;11.974;2023-06-14T06:00:50;7.25;;;5.60;;
16957;SDS011;8595;52.542;11.974;2023-06-14T06:03:18;6.35;;;5.75;;
16957;SDS011;8595;52.542;11.974;2023-06-14T06:05:46;8.98;;;5.80;;
16957;SDS011;8595;52.542;11.974;2023-06-14T06:08:12;5.95;;;5.28;;
16957;SDS011;8595;52.542;11.974;2023-06-14T06:10:41;6.80;;;5.85;;
16957;SDS011;8595;52.542;11.974;2023-06-14T06:13:08;7.05;;;5.45;;
16957;SDS011;8595;52.542;11.974;2023-06-14T06:15:35;6.30;;;5.70;;
16957;SDS011;8595;52.542;11.974;2023-06-14T06:18:03;5.45;;;4.95;;
16957;SDS011;8595;52.542;11.974;2023-06-14T06:20:33;5.13;;;4.50;;
16957;SDS011;8595;52.542;11.974;2023-06-14T06:23:01;5.97;;;5.38;;
16957;SDS011;8595;52.542;11.974;2023-06-14T06:25:28;4.57;;;4.13;;
16957;SDS011;8595;52.542;11.974;2023-06-14T06:27:56;4.90;;;4.40;;
16957;SDS011;8595;52.542;11.974;2023-06-14T06:30:24;6.78;;;4.57;;
16957;SDS011;8595;52.542;11.974;2023-06-14T06:32:50;6.22;;;4.05;;
16957;SDS011;8595;52.542;11.974;2023-06-14T06:35:19;3.80;;;3.50;;
16957;SDS011;8595;52.542;11.974;2023-06-14T06:37:46;4.88;;;4.32;;
16957;SDS011;8595;52.542;11.974;2023-06-14T06:40:12;4.13;;;3.72;;
16957;SDS011;8595;52.542;11.974;2023-06-14T06:42:39;4.75;;;4.22;;
16957;SDS011;8595;52.542;11.974;2023-06-14T06:45:07;7.07;;;4.38;;
16957;SDS011;8595;52.542;11.974;2023-06-14T06:47:39;5.45;;;4.35;;
16957;SDS011;8595;52.542;11.974;2023-06-14T06:50:06;5.40;;;4.28;;
16957;SDS011;8595;52.542;11.974;2023-06-14T06:52:35;5.57;;;4.57;;
16957;SDS011;8595;52.542;11.974;2023-06-14T06:55:02;4.35;;;3.95;;
16957;SDS011;8595;52.542;11.974;2023-06-14T06:57:29;4.72;;;4.30;;
16957;SDS011;8595;52.542;11.974;2023-06-14T06:59:56;4.50;;;4.05;;
16957;SDS011;8595;52.542;11.974;2023-06-14T07:02:23;5.35;;;4.90;;
16957;SDS011;8595;52.542;11.974;2023-06-14T07:04:50;5.30;;;4.80;;
16957;SDS011;8595;52.542;11.974;2023-06-14T07:07:17;6.30;;;5.05;;
16957;SDS011;8595;52.542;11.974;2023-06-14T07:09:45;6.25;;;4.63;;
16957;SDS011;8595;52.542;11.974;2023-06-14T07:12:13;5.57;;;4.65;;
16957;SDS011;8595;52.542;11.974;2023-06-14T07:14:40;7.13;;;5.60;;
16957;SDS011;8595;52.542;11.974;2023-06-14T07:17:08;5.85;;;5.25;;
16957;SDS011;8595;52.542;11.974;2023-06-14T07:19:37;8.07;;;5.60;;
16957;SDS011;8595;52.542;11.974;2023-06-14T07:22:05;6.70;;;5.00;;
16957;SDS011;8595;52.542;11.974;2023-06-14T07:24:33;6.63;;;5.18;;
16957;SDS011;8595;52.542;11.974;2023-06-14T07:27:02;5.95;;;5.30;;
16957;SDS011;8595;52.542;11.974;2023-06-14T07:29:29;6.10;;;5.07;;
16957;SDS011;8595;52.542;11.974;2023-06-14T07:31:56;5.68;;;5.03;;
16957;SDS011;8595;52.542;11.974;2023-06-14T07:34:23;9.38;;;5.25;;
16957;SDS011;8595;52.542;11.974;2023-06-14T07:36:51;9.40;;;5.90;;
16957;SDS011;8595;52.542;11.974;2023-06-14T07:39:19;7.10;;;4.97;;
16957;SDS011;8595;52.542;11.974;2023-06-14T07:41:46;5.88;;;5.38;;
16957;SDS011;8595;52.542;11.974;2023-06-14T07:44:14;5.95;;;5.35;;
16957;SDS011;8595;52.542;11.974;2023-06-14T07:46:40;6.57;;;5.10;;
16957;SDS011;8595;52.542;11.974;2023-06-14T07:49:08;5.47;;;4.82;;
16957;SDS011;8595;52.542;11.974;2023-06-14T07:51:35;6.78;;;6.07;;
16957;SDS011;8595;52.542;11.974;2023-06-14T07:54:02;6.35;;;5.75;;
16957;SDS011;8595;52.542;11.974;2023-06-14T07:56:32;6.53;;;5.68;;
16957;SDS011;8595;52.542;11.974;2023-06-14T07:58:58;7.18;;;5.05;;
16957;SDS011;8595;52.542;11.974;2023-06-14T08:01:26;6.75;;;5.55;;
16957;SDS011;8595;52.542;11.974;2023-06-14T08:03:53;7.00;;;4.90;;
16957;SDS011;8595;52.542;11.974;2023-06-14T08:06:20;5.90;;;5.07;;
16957;SDS011;8595;52.542;11.974;2023-06-14T08:08:47;6.38;;;4.90;;
16957;SDS011;8595;52.542;11.974;2023-06-14T08:11:13;8.70;;;4.53;;
16957;SDS011;8595;52.542;11.974;2023-06-14T08:13:40;5.50;;;5.00;;
16957;SDS011;8595;52.542;11.974;2023-06-14T08:16:07;5.25;;;4.50;;
16957;SDS011;8595;52.542;11.974;2023-06-14T08:18:35;10.02;;;5.22;;
16957;SDS011;8595;52.542;11.974;2023-06-14T08:21:02;7.60;;;4.85;;
16957;SDS011;8595;52.542;11.974;2023-06-14T08:23:29;5.13;;;4.72;;
16957;SDS011;8595;52.542;11.974;2023-06-14T08:25:55;5.80;;;4.43;;
16957;SDS011;8595;52.542;11.974;2023-06-14T08:28:23;7.07;;;5.10;;
16957;SDS011;8595;52.542;11.974;2023-06-14T08:30:50;6.55;;;5.10;;
16957;SDS011;8595;52.542;11.974;2023-06-14T08:33:17;8.75;;;4.65;;
16957;SDS011;8595;52.542;11.974;2023-06-14T08:35:45;8.63;;;5.25;;
16957;SDS011;8595;52.542;11.974;2023-06-14T08:38:12;6.43;;;4.57;;
16957;SDS011;8595;52.542;11.974;2023-06-14T08:40:38;8.50;;;4.78;;
16957;SDS011;8595;52.542;11.974;2023-06-14T08:43:07;8.40;;;5.22;;
16957;SDS011;8595;52.542;11.974;2023-06-14T08:45:34;5.75;;;4.60;;
16957;SDS011;8595;52.542;11.974;2023-06-14T08:48:01;11.35;;;5.32;;
16957;SDS011;8595;52.542;11.974;2023-06-14T08:50:27;12.23;;;4.50;;
16957;SDS011;8595;52.542;11.974;2023-06-14T08:52:57;5.07;;;4.60;;
16957;SDS011;8595;52.542;11.974;2023-06-14T08:55:27;5.72;;;4.75;;
16957;SDS011;8595;52.542;11.974;2023-06-14T08:57:55;5.40;;;4.70;;
16957;SDS011;8595;52.542;11.974;2023-06-14T09:00:24;10.18;;;5.00;;
16957;SDS011;8595;52.542;11.974;2023-06-14T09:02:52;6.43;;;4.43;;
16957;SDS011;8595;52.542;11.974;2023-06-14T09:05:23;6.80;;;4.47;;
16957;SDS011;8595;52.542;11.974;2023-06-14T09:07:50;6.75;;;4.65;;
16957;SDS011;8595;52.542;11.974;2023-06-14T09:10:19;9.60;;;4.22;;
16957;SDS011;8595;52.542;11.974;2023-06-14T09:12:47;8.93;;;4.47;;
16957;SDS011;8595;52.542;11.974;2023-06-14T09:15:14;7.05;;;5.03;;
16957;SDS011;8595;52.542;11.974;2023-06-14T09:17:42;8.20;;;4.53;;
16957;SDS011;8595;52.542;11.974;2023-06-14T09:20:09;6.30;;;4.30;;
16957;SDS011;8595;52.542;11.974;2023-06-14T09:22:38;5.45;;;3.80;;
16957;SDS011;8595;52.542;11.974;2023-06-14T09:25:06;6.72;;;4.03;;
16957;SDS011;8595;52.542;11.974;2023-06-14T09:27:35;5.10;;;3.63;;
16957;SDS011;8595;52.542;11.974;2023-06-14T09:30:05;7.30;;;3.60;;
16957;SDS011;8595;52.542;11.974;2023-06-14T09:32:35;6.38;;;4.13;;
16957;SDS011;8595;52.542;11.974;2023-06-14T09:35:03;7.90;;;3.97;;
16957;SDS011;8595;52.542;11.974;2023-06-14T09:37:32;6.70;;;3.80;;
16957;SDS011;8595;52.542;11.974;2023-06-14T09:40:00;7.45;;;4.00;;
16957;SDS011;8595;52.542;11.974;2023-06-14T09:42:27;8.05;;;4.20;;
16957;SDS011;8595;52.542;11.974;2023-06-14T09:44:56;6.55;;;4.07;;
16957;SDS011;8595;52.542;11.974;2023-06-14T09:47:23;6.53;;;4.35;;
16957;SDS011;8595;52.542;11.974;2023-06-14T09:49:50;6.95;;;3.88;;
16957;SDS011;8595;52.542;11.974;2023-06-14T09:52:19;6.07;;;4.13;;
16957;SDS011;8595;52.542;11.974;2023-06-14T09:54:48;7.10;;;4.47;;
16957;SDS011;8595;52.542;11.974;2023-06-14T09:57:15;7.32;;;4.05;;
16957;SDS011;8595;52.542;11.974;2023-06-14T09:59:46;9.30;;;3.65;;
16957;SDS011;8595;52.542;11.974;2023-06-14T10:02:22;8.02;;;4.40;;
16957;SDS011;8595;52.542;11.974;2023-06-14T10:04:53;8.25;;;4.03;;
16957;SDS011;8595;52.542;11.974;2023-06-14T10:07:26;7.38;;;3.47;;
16957;SDS011;8595;52.542;11.974;2023-06-14T10:09:56;8.93;;;3.72;;
16957;SDS011;8595;52.542;11.974;2023-06-14T10:12:23;13.73;;;4.18;;
16957;SDS011;8595;52.542;11.974;2023-06-14T10:14:51;7.40;;;4.45;;
16957;SDS011;8595;52.542;11.974;2023-06-14T10:17:26;11.30;;;4.65;;
16957;SDS011;8595;52.542;11.974;2023-06-14T10:20:03;15.60;;;4.15;;
16957;SDS011;8595;52.542;11.974;2023-06-14T10:22:42;8.65;;;3.90;;
16957;SDS011;8595;52.542;11.974;2023-06-14T10:25:13;7.80;;;3.80;;
16957;SDS011;8595;52.542;11.974;2023-06-14T10:27:51;6.95;;;3.97;;
16957;SDS011;8595;52.542;11.974;2023-06-14T10:30:18;7.05;;;4.13;;
16957;SDS011;8595;52.542;11.974;2023-06-14T10:35:40;6.32;;;4.20;;
16957;SDS011;8595;52.542;11.974;2023-06-14T10:38:08;9.30;;;3.80;;
16957;SDS011;8595;52.542;11.974;2023-06-14T10:40:36;4.70;;;3.83;;
16957;SDS011;8595;52.542;11.974;2023-06-14T10:48:43;5.43;;;3.78;;
16957;SDS011;8595;52.542;11.974;2023-06-14T10:51:17;6.45;;;3.92;;
16957;SDS011;8595;52.542;11.974;2023-06-14T10:53:47;10.30;;;3.80;;
16957;SDS011;8595;52.542;11.974;2023-06-14T10:56:27;4.15;;;3.47;;
16957;SDS011;8595;52.542;11.974;2023-06-14T10:58:54;5.03;;;3.47;;
16957;SDS011;8595;52.542;11.974;2023-06-14T11:01:25;11.13;;;3.40;;
16957;SDS011;8595;52.542;11.974;2023-06-14T11:04:07;7.45;;;3.83;;
16957;SDS011;8595;52.542;11.974;2023-06-14T11:06:46;12.07;;;3.97;;
16957;SDS011;8595;52.542;11.974;2023-06-14T11:09:35;9.15;;;3.63;;
16957;SDS011;8595;52.542;11.974;2023-06-14T11:12:19;7.00;;;3.67;;
16957;SDS011;8595;52.542;11.974;2023-06-14T11:14:47;5.72;;;3.50;;
16957;SDS011;8595;52.542;11.974;2023-06-14T11:17:14;7.72;;;3.75;;
16957;SDS011;8595;52.542;11.974;2023-06-14T11:19:42;8.52;;;3.83;;
16957;SDS011;8595;52.542;11.974;2023-06-14T11:22:10;6.13;;;3.88;;
16957;SDS011;8595;52.542;11.974;2023-06-14T11:24:37;9.63;;;3.90;;
16957;SDS011;8595;52.542;11.974;2023-06-14T11:27:03;8.77;;;4.15;;
16957;SDS011;8595;52.542;11.974;2023-06-14T11:29:31;7.38;;;4.18;;
16957;SDS011;8595;52.542;11.974;2023-06-14T11:31:58;7.97;;;3.70;;
16957;SDS011;8595;52.542;11.974;2023-06-14T11:34:25;7.25;;;4.18;;
16957;SDS011;8595;52.542;11.974;2023-06-14T11:36:53;6.45;;;4.10;;
16957;SDS011;8595;52.542;11.974;2023-06-14T11:39:23;8.35;;;4.60;;
16957;SDS011;8595;52.542;11.974;2023-06-14T11:41:51;6.53;;;4.28;;
16957;SDS011;8595;52.542;11.974;2023-06-14T11:44:18;7.65;;;4.65;;
16957;SDS011;8595;52.542;11.974;2023-06-14T11:46:44;8.68;;;4.45;;
16957;SDS011;8595;52.542;11.974;2023-06-14T11:49:11;7.18;;;4.25;;
16957;SDS011;8595;52.542;11.974;2023-06-14T11:51:39;9.48;;;4.40;;
16957;SDS011;8595;52.542;11.974;2023-06-14T11:54:09;7.57;;;5.07;;
16957;SDS011;8595;52.542;11.974;2023-06-14T11:56:37;9.60;;;4.18;;
16957;SDS011;8595;52.542;11.974;2023-06-14T11:59:06;12.18;;;4.75;;
16957;SDS011;8595;52.542;11.974;2023-06-14T12:01:37;7.38;;;4.32;;
16957;SDS011;8595;52.542;11.974;2023-06-14T12:04:04;6.53;;;3.97;;
16957;SDS011;8595;52.542;11.974;2023-06-14T12:06:31;15.38;;;4.50;;
16957;SDS011;8595;52.542;11.974;2023-06-14T12:09:03;10.75;;;3.50;;
16957;SDS011;8595;52.542;11.974;2023-06-14T12:11:33;9.77;;;4.30;;
16957;SDS011;8595;52.542;11.974;2023-06-14T12:14:03;9.05;;;3.85;;
16957;SDS011;8595;52.542;11.974;2023-06-14T12:16:30;8.15;;;3.80;;
16957;SDS011;8595;52.542;11.974;2023-06-14T12:19:00;7.60;;;3.90;;
16957;SDS011;8595;52.542;11.974;2023-06-14T12:21:33;8.63;;;3.83;;
16957;SDS011;8595;52.542;11.974;2023-06-14T12:24:03;8.20;;;3.70;;
16957;SDS011;8595;52.542;11.974;2023-06-14T12:26:33;6.53;;;3.67;;
16957;SDS011;8595;52.542;11.974;2023-06-14T12:29:00;8.98;;;3.80;;
16957;SDS011;8595;52.542;11.974;2023-06-14T12:31:27;10.65;;;4.47;;
16957;SDS011;8595;52.542;11.974;2023-06-14T12:33:54;15.38;;;4.75;;
16957;SDS011;8595;52.542;11.974;2023-06-14T12:36:21;7.70;;;3.72;;
16957;SDS011;8595;52.542;11.974;2023-06-14T12:38:48;5.32;;;3.97;;
16957;SDS011;8595;52.542;11.974;2023-06-14T12:41:18;7.70;;;3.42;;
16957;SDS011;8595;52.542;11.974;2023-06-14T12:43:47;10.18;;;3.60;;
16957;SDS011;8595;52.542;11.974;2023-06-14T12:46:14;9.90;;;3.70;;
16957;SDS011;8595;52.542;11.974;2023-06-14T12:48:41;7.00;;;3.97;;
16957;SDS011;8595;52.542;11.974;2023-06-14T12:51:07;6.35;;;3.40;;
16957;SDS011;8595;52.542;11.974;2023-06-14T12:53:34;4.18;;;3.28;;
16957;SDS011;8595;52.542;11.974;2023-06-14T12:56:01;6.40;;;3.63;;
16957;SDS011;8595;52.542;11.974;2023-06-14T12:58:27;12.20;;;3.80;;
16957;SDS011;8595;52.542;11.974;2023-06-14T13:00:55;9.43;;;4.50;;
16957;SDS011;8595;52.542;11.974;2023-06-14T13:03:22;10.82;;;4.05;;
16957;SDS011;8595;52.542;11.974;2023-06-14T13:05:49;4.68;;;3.97;;
16957;SDS011;8595;52.542;11.974;2023-06-14T13:08:15;7.68;;;3.30;;
16957;SDS011;8595;52.542;11.974;2023-06-14T13:10:42;6.68;;;3.65;;
16957;SDS011;8595;52.542;11.974;2023-06-14T13:13:09;7.95;;;4.22;;
16957;SDS011;8595;52.542;11.974;2023-06-14T13:15:37;5.55;;;3.20;;
16957;SDS011;8595;52.542;11.974;2023-06-14T13:18:06;13.68;;;3.80;;
16957;SDS011;8595;52.542;11.974;2023-06-14T13:20:32;4.95;;;3.95;;
16957;SDS011;8595;52.542;11.974;2023-06-14T13:22:59;11.82;;;3.35;;
16957;SDS011;8595;52.542;11.974;2023-06-14T13:25:27;5.53;;;4.13;;
16957;SDS011;8595;52.542;11.974;2023-06-14T13:27:53;8.70;;;3.70;;
16957;SDS011;8595;52.542;11.974;2023-06-14T13:30:20;7.47;;;3.97;;
16957;SDS011;8595;52.542;11.974;2023-06-14T13:32:47;7.85;;;4.03;;
16957;SDS011;8595;52.542;11.974;2023-06-14T13:35:17;6.95;;;4.05;;
16957;SDS011;8595;52.542;11.974;2023-06-14T13:37:43;9.98;;;3.67;;
16957;SDS011;8595;52.542;11.974;2023-06-14T13:40:11;9.10;;;4.25;;
16957;SDS011;8595;52.542;11.974;2023-06-14T13:42:38;10.70;;;4.18;;
16957;SDS011;8595;52.542;11.974;2023-06-14T13:45:06;9.48;;;3.67;;
16957;SDS011;8595;52.542;11.974;2023-06-14T13:47:36;7.55;;;4.03;;
16957;SDS011;8595;52.542;11.974;2023-06-14T13:50:03;5.97;;;3.25;;
16957;SDS011;8595;52.542;11.974;2023-06-14T13:52:32;5.70;;;3.50;;
16957;SDS011;8595;52.542;11.974;2023-06-14T13:55:01;10.75;;;3.75;;
16957;SDS011;8595;52.542;11.974;2023-06-14T13:57:27;8.82;;;3.28;;
16957;SDS011;8595;52.542;11.974;2023-06-14T13:59:55;5.32;;;3.17;;
16957;SDS011;8595;52.542;11.974;2023-06-14T14:02:26;3.50;;;3.15;;
16957;SDS011;8595;52.542;11.974;2023-06-14T14:04:53;8.73;;;4.05;;
16957;SDS011;8595;52.542;11.974;2023-06-14T14:07:20;5.05;;;3.97;;
16957;SDS011;8595;52.542;11.974;2023-06-14T14:09:48;8.20;;;4.00;;
16957;SDS011;8595;52.542;11.974;2023-06-14T14:12:15;7.25;;;3.70;;
16957;SDS011;8595;52.542;11.974;2023-06-14T14:14:41;5.97;;;3.72;;
16957;SDS011;8595;52.542;11.974;2023-06-14T14:17:08;7.55;;;3.75;;
16957;SDS011;8595;52.542;11.974;2023-06-14T14:19:35;10.57;;;3.40;;
16957;SDS011;8595;52.542;11.974;2023-06-14T14:22:01;11.77;;;4.00;;
16957;SDS011;8595;52.542;11.974;2023-06-14T14:24:28;7.68;;;3.70;;
16957;SDS011;8595;52.542;11.974;2023-06-14T14:26:56;7.80;;;4.35;;
16957;SDS011;8595;52.542;11.974;2023-06-14T14:29:25;8.93;;;4.53;;
16957;SDS011;8595;52.542;11.974;2023-06-14T14:31:54;9.60;;;4.10;;
16957;SDS011;8595;52.542;11.974;2023-06-14T14:34:20;7.75;;;4.18;;
16957;SDS011;8595;52.542;11.974;2023-06-14T14:36:47;13.55;;;4.10;;
16957;SDS011;8595;52.542;11.974;2023-06-14T14:39:14;6.10;;;3.25;;
16957;SDS011;8595;52.542;11.974;2023-06-14T14:41:40;6.20;;;3.47;;
16957;SDS011;8595;52.542;11.974;2023-06-14T14:44:09;5.93;;;3.35;;
16957;SDS011;8595;52.542;11.974;2023-06-14T14:46:35;8.15;;;3.45;;
16957;SDS011;8595;52.542;11.974;2023-06-14T14:49:02;5.50;;;3.45;;
16957;SDS011;8595;52.542;11.974;2023-06-14T14:51:29;7.03;;;3.60;;
16957;SDS011;8595;52.542;11.974;2023-06-14T14:53:56;5.65;;;3.83;;
16957;SDS011;8595;52.542;11.974;2023-06-14T14:56:23;8.95;;;3.80;;
16957;SDS011;8595;52.542;11.974;2023-06-14T14:58:51;10.05;;;3.80;;